Main page
METAR-TAF:

METAR-TAF

Airports :

Defence School of Transport

Leconfield, England

latitude: 53-52-37N, longitude: 0-26-15W, elevation: 7 m

Current weather observation

The report was made 58 minutes ago, at 23:50 UTC
Wind 12 kt from the West
Temperature 6°C
Humidity 93%
Pressure 967 hPa
Visibility: 7000 m
rain

METAR: EGXV 202350Z AUTO 26012KT 7000 RA FEW006/// BKN010/// BKN025/// 06/05 Q0967

Time: 00:48 (00:48 UTC)


TAF: missing

Weather observations and forecasts of more than 4000 airports (METAR and TAF reports).

The available stations are represented by yellow and red dots on the map.

Hover mouse over dot to see the name of the station.

Then click to see weather observations and forecasts.

To change the map : click on the green buttons with a black cross to zoom in, on the green button with a dash to zoom out, or on the green arrows for adjacent maps.


METAR-TAF: